Beehive, Montana
Current Conditions -  °F | °C
As of 1:53 PM on Friday 28 Nov 2014 (Local Time) from KLVM Reporting Station
Overcast Overcast  
Wind Chill: 13°   Ceiling: 7000
Heat Index: 13°   Visibility: 10mi
Dew Point: -4°   Wind: 28mph
Humidity: 30%   Direction: 230°SW
Pressure: 29.55"   Gusts: 38mph
Location:  45.4577°N, 109.823°W
Report Text: KLVM 282053Z AUTO 23024G33KT 10SM SCT050 OVC070 13/M04 A2955 RMK AO2 PK WND 22045/2007 SLP983 T01281044 56022
Loading
Personal Weather Stations






























Interactive Weather Map New forecast layout! Learn more

10-Day Weather Forecast

Advertisements
Track Severe Weather on mobile